Ana Sayfa
METAR-TAF:

METAR-TAF

Havaalanları :

Harrell Field

Camden, Arkansas, Amerika Birleşik Devletleri

Enlem: 33-37N, Boylam: 092-46W, yükseklik: 40 m

Güncel hava durumu gözlemi

Rapor saat 10:55 UTC de 23 dakika önce yapıldı.
Rüzgar güneydoğudan 5 kt
Sıcaklık 20°C
Nem 100%
Basınç 1012 hPa
Görüş mesafesi: 16.1 km
2300 ft yükseklikte çok bulutlu

METAR: KCDH 231055Z AUTO 14005KT 10SM OVC023 20/20 A2987 RMK AO2

Saat: 06:18 (11:18 UTC)


TAF: eksik

4.000'den fazla havaalanı için hava durumu gözlemleri ve tahminleri (METAR ve TAF raporları).

Kullanılabilir istasyonlar harita üzerinde sarı ve kırmızı noktalarla gösterilir.

İstasyonun adını görmek için fareyi noktanın üzerinde gezdirin.

Sonrasında hava gözlem ve tahminlerini görmek için tıklayın.

Haritayı değiştirmek için: yaklaştırmak için siyah artı işaretli yeşil düğmeye ve uzaklaştırmak için de eksi işaretli düğmeye hızla tıklayın; bitişik haritalar için yeşil okları kullanın.


METAR-TAF: